sensor_id;sensor_type;location;lat;lon;timestamp;pressure;altitude;pressure_sealevel;temperature;humidity
67818;BME280;54614;47.576;7.524;2022-12-17T00:00:23;98781.97;;;23.53;30.47
67818;BME280;54614;47.576;7.524;2022-12-17T00:03:09;98786.25;;;23.40;30.41
67818;BME280;54614;47.576;7.524;2022-12-17T00:05:54;98789.56;;;23.42;30.15
67818;BME280;54614;47.576;7.524;2022-12-17T00:08:38;98791.59;;;23.34;30.28
67818;BME280;54614;47.576;7.524;2022-12-17T00:11:23;98797.59;;;23.36;30.48
67818;BME280;54614;47.576;7.524;2022-12-17T00:14:07;98797.84;;;23.41;30.30
67818;BME280;54614;47.576;7.524;2022-12-17T00:16:52;98800.09;;;23.37;30.31
67818;BME280;54614;47.576;7.524;2022-12-17T00:19:36;98804.41;;;23.38;30.33
67818;BME280;54614;47.576;7.524;2022-12-17T00:22:21;98797.41;;;23.37;30.30
67818;BME280;54614;47.576;7.524;2022-12-17T00:25:05;98797.59;;;23.36;30.25
67818;BME280;54614;47.576;7.524;2022-12-17T00:27:50;98806.69;;;23.35;30.21
67818;BME280;54614;47.576;7.524;2022-12-17T00:30:34;98811.81;;;23.30;29.93
67818;BME280;54614;47.576;7.524;2022-12-17T00:33:19;98815.13;;;23.32;30.17
67818;BME280;54614;47.576;7.524;2022-12-17T00:36:03;98815.13;;;23.32;29.94
67818;BME280;54614;47.576;7.524;2022-12-17T00:38:47;98819.47;;;23.33;30.08
67818;BME280;54614;47.576;7.524;2022-12-17T00:41:32;98815.91;;;23.26;30.20
67818;BME280;54614;47.576;7.524;2022-12-17T00:44:16;98827.69;;;23.25;29.99
67818;BME280;54614;47.576;7.524;2022-12-17T00:47:00;98836.56;;;23.25;29.98
67818;BME280;54614;47.576;7.524;2022-12-17T00:49:45;98829.72;;;23.23;30.35
67818;BME280;54614;47.576;7.524;2022-12-17T00:52:29;98835.94;;;23.23;29.95
67818;BME280;54614;47.576;7.524;2022-12-17T00:55:14;98836.94;;;23.22;30.02
67818;BME280;54614;47.576;7.524;2022-12-17T00:57:59;98835.09;;;23.23;29.85
67818;BME280;54614;47.576;7.524;2022-12-17T01:00:43;98842.94;;;23.24;30.06
67818;BME280;54614;47.576;7.524;2022-12-17T01:03:28;98850.56;;;23.21;30.09
67818;BME280;54614;47.576;7.524;2022-12-17T01:06:13;98845.97;;;23.14;30.25
67818;BME280;54614;47.576;7.524;2022-12-17T01:08:57;98838.97;;;23.13;30.02
67818;BME280;54614;47.576;7.524;2022-12-17T01:11:42;98844.38;;;23.20;30.15
67818;BME280;54614;47.576;7.524;2022-12-17T01:14:26;98849.94;;;23.19;29.92
67818;BME280;54614;47.576;7.524;2022-12-17T01:17:11;98846.38;;;23.11;29.92
67818;BME280;54614;47.576;7.524;2022-12-17T01:19:55;98846.63;;;23.17;29.84
67818;BME280;54614;47.576;7.524;2022-12-17T01:22:40;98846.56;;;23.10;30.23
67818;BME280;54614;47.576;7.524;2022-12-17T01:25:24;98846.97;;;23.07;30.28
67818;BME280;54614;47.576;7.524;2022-12-17T01:28:09;98847.41;;;23.10;30.03
67818;BME280;54614;47.576;7.524;2022-12-17T01:31:04;98858.31;;;23.09;30.04
67818;BME280;54614;47.576;7.524;2022-12-17T01:33:48;98861.66;;;23.11;30.30
67818;BME280;54614;47.576;7.524;2022-12-17T01:36:32;98855.00;;;23.07;30.19
67818;BME280;54614;47.576;7.524;2022-12-17T01:39:16;98870.91;;;23.08;30.10
67818;BME280;54614;47.576;7.524;2022-12-17T01:42:01;98869.84;;;23.03;29.89
67818;BME280;54614;47.576;7.524;2022-12-17T01:44:52;98867.78;;;23.05;30.19
67818;BME280;54614;47.576;7.524;2022-12-17T01:47:44;98874.38;;;23.02;30.16
67818;BME280;54614;47.576;7.524;2022-12-17T01:50:38;98875.41;;;23.01;29.98
67818;BME280;54614;47.576;7.524;2022-12-17T01:53:30;98879.69;;;22.96;30.31
67818;BME280;54614;47.576;7.524;2022-12-17T01:56:17;98880.97;;;23.00;30.15
67818;BME280;54614;47.576;7.524;2022-12-17T01:59:05;98879.69;;;22.96;30.01
67818;BME280;54614;47.576;7.524;2022-12-17T02:01:51;98893.16;;;23.02;29.74
67818;BME280;54614;47.576;7.524;2022-12-17T02:04:35;98891.25;;;22.96;29.77
67818;BME280;54614;47.576;7.524;2022-12-17T02:10:51;98892.41;;;22.87;30.17
67818;BME280;54614;47.576;7.524;2022-12-17T02:13:42;98898.03;;;22.92;30.22
67818;BME280;54614;47.576;7.524;2022-12-17T02:16:40;98898.47;;;22.96;30.07
67818;BME280;54614;47.576;7.524;2022-12-17T02:20:04;98900.69;;;22.92;30.01
67818;BME280;54614;47.576;7.524;2022-12-17T02:26:12;98897.56;;;22.89;29.84
67818;BME280;54614;47.576;7.524;2022-12-17T02:29:00;98896.06;;;22.79;30.11
67818;BME280;54614;47.576;7.524;2022-12-17T02:31:48;98898.34;;;22.82;30.03
67818;BME280;54614;47.576;7.524;2022-12-17T02:34:46;98899.09;;;22.76;30.10
67818;BME280;54614;47.576;7.524;2022-12-17T02:37:31;98903.44;;;22.77;30.18
67818;BME280;54614;47.576;7.524;2022-12-17T02:40:18;98900.41;;;22.80;30.27
67818;BME280;54614;47.576;7.524;2022-12-17T02:43:05;98905.84;;;22.72;30.02
67818;BME280;54614;47.576;7.524;2022-12-17T02:45:50;98911.03;;;22.74;30.12
67818;BME280;54614;47.576;7.524;2022-12-17T02:48:35;98906.44;;;22.68;30.22
67818;BME280;54614;47.576;7.524;2022-12-17T02:51:20;98901.50;;;22.71;29.99
67818;BME280;54614;47.576;7.524;2022-12-17T02:54:07;98906.63;;;22.66;30.09
67818;BME280;54614;47.576;7.524;2022-12-17T02:56:51;98911.97;;;22.66;30.24
67818;BME280;54614;47.576;7.524;2022-12-17T02:59:36;98913.66;;;22.67;30.37
67818;BME280;54614;47.576;7.524;2022-12-17T03:02:20;98916.31;;;22.67;30.16
67818;BME280;54614;47.576;7.524;2022-12-17T03:05:04;98916.72;;;22.64;30.30
67818;BME280;54614;47.576;7.524;2022-12-17T03:07:50;98922.31;;;22.69;29.98
67818;BME280;54614;47.576;7.524;2022-12-17T03:10:34;98922.53;;;22.68;30.06
67818;BME280;54614;47.576;7.524;2022-12-17T03:13:27;98928.63;;;22.62;29.93
67818;BME280;54614;47.576;7.524;2022-12-17T03:16:15;98931.59;;;22.67;29.98
67818;BME280;54614;47.576;7.524;2022-12-17T03:19:00;98940.28;;;22.69;30.14
67818;BME280;54614;47.576;7.524;2022-12-17T03:21:45;98935.28;;;22.66;29.83
67818;BME280;54614;47.576;7.524;2022-12-17T03:24:30;98940.19;;;22.62;30.02
67818;BME280;54614;47.576;7.524;2022-12-17T03:27:15;98943.44;;;22.58;29.88
67818;BME280;54614;47.576;7.524;2022-12-17T03:29:59;98941.03;;;22.63;30.13
67818;BME280;54614;47.576;7.524;2022-12-17T03:32:44;98946.59;;;22.61;29.86
67818;BME280;54614;47.576;7.524;2022-12-17T03:35:28;98948.16;;;22.56;29.96
67818;BME280;54614;47.576;7.524;2022-12-17T03:38:13;98942.16;;;22.54;29.49
67818;BME280;54614;47.576;7.524;2022-12-17T03:40:58;98952.13;;;22.60;29.66
67818;BME280;54614;47.576;7.524;2022-12-17T03:43:43;98953.72;;;22.54;29.46
67818;BME280;54614;47.576;7.524;2022-12-17T03:46:27;98952.06;;;22.53;29.59
67818;BME280;54614;47.576;7.524;2022-12-17T03:49:11;98957.63;;;22.51;29.51
67818;BME280;54614;47.576;7.524;2022-12-17T03:51:55;98957.63;;;22.51;29.82
67818;BME280;54614;47.576;7.524;2022-12-17T03:54:40;98955.38;;;22.55;29.74
67818;BME280;54614;47.576;7.524;2022-12-17T03:57:24;98947.47;;;22.47;30.02
67818;BME280;54614;47.576;7.524;2022-12-17T04:00:09;98951.81;;;22.48;30.21
67818;BME280;54614;47.576;7.524;2022-12-17T04:02:54;98954.66;;;22.46;29.80
67818;BME280;54614;47.576;7.524;2022-12-17T04:05:39;98948.47;;;22.46;30.09
67818;BME280;54614;47.576;7.524;2022-12-17T04:08:23;98950.69;;;22.42;29.89
67818;BME280;54614;47.576;7.524;2022-12-17T04:11:07;98946.56;;;22.40;30.15
67818;BME280;54614;47.576;7.524;2022-12-17T04:13:52;98944.31;;;22.43;29.98
67818;BME280;54614;47.576;7.524;2022-12-17T04:16:36;98937.31;;;22.42;31.50
67818;BME280;54614;47.576;7.524;2022-12-17T04:19:21;98939.75;;;22.59;30.47
67818;BME280;54614;47.576;7.524;2022-12-17T04:22:05;98943.69;;;22.41;30.52
67818;BME280;54614;47.576;7.524;2022-12-17T04:25:04;98951.81;;;22.48;30.50
67818;BME280;54614;47.576;7.524;2022-12-17T04:27:48;98946.19;;;22.43;30.48
67818;BME280;54614;47.576;7.524;2022-12-17T04:30:32;98954.97;;;22.37;30.44
67818;BME280;54614;47.576;7.524;2022-12-17T04:33:17;98954.50;;;22.33;30.58
67818;BME280;54614;47.576;7.524;2022-12-17T04:36:01;98955.34;;;22.34;30.30
67818;BME280;54614;47.576;7.524;2022-12-17T04:38:46;98962.38;;;22.35;30.38
67818;BME280;54614;47.576;7.524;2022-12-17T04:41:30;98965.69;;;22.37;30.08
67818;BME280;54614;47.576;7.524;2022-12-17T04:44:15;98973.53;;;22.38;30.06
67818;BME280;54614;47.576;7.524;2022-12-17T04:47:00;98976.31;;;22.30;30.31
67818;BME280;54614;47.576;7.524;2022-12-17T04:49:44;98973.47;;;22.32;30.32
67818;BME280;54614;47.576;7.524;2022-12-17T04:52:28;98978.25;;;22.36;30.29
67818;BME280;54614;47.576;7.524;2022-12-17T04:55:32;98992.97;;;22.26;30.24
67818;BME280;54614;47.576;7.524;2022-12-17T04:58:17;98993.06;;;22.32;30.30
67818;BME280;54614;47.576;7.524;2022-12-17T05:01:01;98995.72;;;22.32;30.13
67818;BME280;54614;47.576;7.524;2022-12-17T05:03:46;98994.72;;;22.33;30.19
67818;BME280;54614;47.576;7.524;2022-12-17T05:06:30;98998.78;;;22.29;30.10
67818;BME280;54614;47.576;7.524;2022-12-17T05:09:14;99000.44;;;22.30;30.02
67818;BME280;54614;47.576;7.524;2022-12-17T05:11:59;98994.16;;;22.23;30.24
67818;BME280;54614;47.576;7.524;2022-12-17T05:14:43;98997.50;;;22.25;29.89
67818;BME280;54614;47.576;7.524;2022-12-17T05:17:27;99008.97;;;22.19;30.26
67818;BME280;54614;47.576;7.524;2022-12-17T05:20:12;99006.09;;;22.21;30.33
67818;BME280;54614;47.576;7.524;2022-12-17T05:23:07;99007.94;;;22.20;30.42
67818;BME280;54614;47.576;7.524;2022-12-17T05:26:19;99018.47;;;22.07;30.81
67818;BME280;54614;47.576;7.524;2022-12-17T05:29:04;99006.19;;;22.12;30.63
67818;BME280;54614;47.576;7.524;2022-12-17T05:31:49;99004.25;;;22.21;30.42
67818;BME280;54614;47.576;7.524;2022-12-17T05:34:34;99005.72;;;22.24;31.60
67818;BME280;54614;47.576;7.524;2022-12-17T05:37:23;99012.94;;;22.23;30.52
67818;BME280;54614;47.576;7.524;2022-12-17T05:40:09;99011.09;;;22.24;30.56
67818;BME280;54614;47.576;7.524;2022-12-17T05:43:02;99017.53;;;22.29;30.16
67818;BME280;54614;47.576;7.524;2022-12-17T05:45:47;99017.00;;;22.19;30.19
67818;BME280;54614;47.576;7.524;2022-12-17T05:48:33;99008.97;;;22.19;29.91
67818;BME280;54614;47.576;7.524;2022-12-17T05:51:18;99014.41;;;22.11;30.66
67818;BME280;54614;47.576;7.524;2022-12-17T05:54:02;99021.06;;;22.15;29.79
67818;BME280;54614;47.576;7.524;2022-12-17T05:56:47;99026.59;;;22.13;30.39
67818;BME280;54614;47.576;7.524;2022-12-17T05:59:31;99032.25;;;22.04;29.76
67818;BME280;54614;47.576;7.524;2022-12-17T06:02:16;99028.63;;;22.11;30.56
67818;BME280;54614;47.576;7.524;2022-12-17T06:05:00;99028.19;;;22.23;30.12
67818;BME280;54614;47.576;7.524;2022-12-17T06:07:45;99032.59;;;22.15;30.60
67818;BME280;54614;47.576;7.524;2022-12-17T06:10:30;99029.09;;;22.15;31.74
67818;BME280;54614;47.576;7.524;2022-12-17T06:13:14;99033.81;;;22.28;30.70
67818;BME280;54614;47.576;7.524;2022-12-17T06:15:58;99036.69;;;22.26;30.89
67818;BME280;54614;47.576;7.524;2022-12-17T06:18:43;99035.84;;;22.26;30.81
67818;BME280;54614;47.576;7.524;2022-12-17T06:21:27;99045.00;;;22.31;30.83
67818;BME280;54614;47.576;7.524;2022-12-17T06:24:11;99047.28;;;22.34;30.75
67818;BME280;54614;47.576;7.524;2022-12-17T06:26:56;99055.34;;;22.34;30.84
67818;BME280;54614;47.576;7.524;2022-12-17T06:29:41;99046.94;;;22.37;30.87
67818;BME280;54614;47.576;7.524;2022-12-17T06:32:25;99056.25;;;22.41;30.96
67818;BME280;54614;47.576;7.524;2022-12-17T06:35:10;99053.44;;;22.64;34.52
67818;BME280;54614;47.576;7.524;2022-12-17T06:38:05;99049.19;;;22.70;31.61
67818;BME280;54614;47.576;7.524;2022-12-17T06:40:50;99050.13;;;22.62;31.71
67818;BME280;54614;47.576;7.524;2022-12-17T06:43:36;99052.81;;;22.62;31.54
67818;BME280;54614;47.576;7.524;2022-12-17T06:46:21;99064.19;;;22.64;31.56
67818;BME280;54614;47.576;7.524;2022-12-17T06:49:05;99068.34;;;22.67;32.03
67818;BME280;54614;47.576;7.524;2022-12-17T06:51:49;99073.13;;;22.71;31.82
67818;BME280;54614;47.576;7.524;2022-12-17T06:54:34;99075.44;;;22.74;31.67
67818;BME280;54614;47.576;7.524;2022-12-17T06:57:18;99072.56;;;22.76;31.69
67818;BME280;54614;47.576;7.524;2022-12-17T07:00:05;99080.44;;;22.77;31.99
67818;BME280;54614;47.576;7.524;2022-12-17T07:02:57;99090.97;;;22.79;31.58
67818;BME280;54614;47.576;7.524;2022-12-17T07:05:42;99081.38;;;22.85;31.43
67818;BME280;54614;47.576;7.524;2022-12-17T07:08:26;99082.03;;;22.87;31.52
67818;BME280;54614;47.576;7.524;2022-12-17T07:11:10;99086.31;;;23.02;33.23
67818;BME280;54614;47.576;7.524;2022-12-17T07:13:55;99089.09;;;23.30;33.21
67818;BME280;54614;47.576;7.524;2022-12-17T07:16:39;99097.41;;;23.14;31.75
67818;BME280;54614;47.576;7.524;2022-12-17T07:19:24;99097.50;;;23.06;31.70
67818;BME280;54614;47.576;7.524;2022-12-17T07:22:19;99115.53;;;23.12;32.02
67818;BME280;54614;47.576;7.524;2022-12-17T07:25:05;99108.81;;;23.01;31.89
67818;BME280;54614;47.576;7.524;2022-12-17T07:27:55;99115.91;;;23.09;32.10
67818;BME280;54614;47.576;7.524;2022-12-17T07:30:40;99128.69;;;23.07;31.64
67818;BME280;54614;47.576;7.524;2022-12-17T07:33:25;99131.81;;;23.10;33.01
67818;BME280;54614;47.576;7.524;2022-12-17T07:36:10;99134.59;;;23.17;31.79
67818;BME280;54614;47.576;7.524;2022-12-17T07:38:54;99137.28;;;23.17;31.60
67818;BME280;54614;47.576;7.524;2022-12-17T07:41:38;99144.50;;;23.17;31.89
67818;BME280;54614;47.576;7.524;2022-12-17T07:44:23;99155.22;;;23.17;32.13
67818;BME280;54614;47.576;7.524;2022-12-17T07:47:07;99151.88;;;23.29;33.28
67818;BME280;54614;47.576;7.524;2022-12-17T07:49:51;99160.66;;;23.23;32.63
67818;BME280;54614;47.576;7.524;2022-12-17T07:52:35;99168.44;;;23.18;32.49
67818;BME280;54614;47.576;7.524;2022-12-17T07:55:20;99185.38;;;23.19;32.50
67818;BME280;54614;47.576;7.524;2022-12-17T07:58:09;99182.88;;;23.17;32.19
67818;BME280;54614;47.576;7.524;2022-12-17T08:00:57;99192.34;;;23.13;31.79
67818;BME280;54614;47.576;7.524;2022-12-17T08:03:42;99198.34;;;23.15;31.67
67818;BME280;54614;47.576;7.524;2022-12-17T08:06:26;99201.69;;;23.17;31.79
67818;BME280;54614;47.576;7.524;2022-12-17T08:09:11;99202.63;;;23.09;31.68
67818;BME280;54614;47.576;7.524;2022-12-17T08:11:55;99194.56;;;23.09;31.72
67818;BME280;54614;47.576;7.524;2022-12-17T08:14:42;99196.13;;;23.19;31.73
67818;BME280;54614;47.576;7.524;2022-12-17T08:17:27;99193.16;;;23.13;31.61
67818;BME280;54614;47.576;7.524;2022-12-17T08:20:11;99184.94;;;23.15;31.41
67818;BME280;54614;47.576;7.524;2022-12-17T08:23:05;99187.66;;;23.36;52.36
67818;BME280;54614;47.576;7.524;2022-12-17T08:25:49;99194.00;;;23.65;44.70
67818;BME280;54614;47.576;7.524;2022-12-17T08:28:34;99208.28;;;23.51;35.08
67818;BME280;54614;47.576;7.524;2022-12-17T08:31:19;99213.19;;;23.47;33.96
67818;BME280;54614;47.576;7.524;2022-12-17T08:34:04;99209.72;;;23.32;33.36
67818;BME280;54614;47.576;7.524;2022-12-17T08:36:48;99217.94;;;23.30;32.81
67818;BME280;54614;47.576;7.524;2022-12-17T08:39:33;99212.00;;;23.35;35.11
67818;BME280;54614;47.576;7.524;2022-12-17T08:42:17;99217.16;;;23.51;32.80
67818;BME280;54614;47.576;7.524;2022-12-17T08:45:01;99223.28;;;23.45;32.34
67818;BME280;54614;47.576;7.524;2022-12-17T08:47:46;99227.47;;;23.33;32.40
67818;BME280;54614;47.576;7.524;2022-12-17T08:50:30;99230.09;;;23.26;33.03
67818;BME280;54614;47.576;7.524;2022-12-17T08:53:14;99229.84;;;23.57;34.44
67818;BME280;54614;47.576;7.524;2022-12-17T08:55:59;99229.81;;;23.72;33.97
67818;BME280;54614;47.576;7.524;2022-12-17T08:58:43;99227.19;;;23.78;33.84
67818;BME280;54614;47.576;7.524;2022-12-17T09:01:27;99228.09;;;23.86;33.44
67818;BME280;54614;47.576;7.524;2022-12-17T09:04:11;99230.59;;;23.87;33.30
67818;BME280;54614;47.576;7.524;2022-12-17T09:06:56;99237.19;;;23.85;32.88
67818;BME280;54614;47.576;7.524;2022-12-17T09:09:40;99238.41;;;23.82;32.72
67818;BME280;54614;47.576;7.524;2022-12-17T09:12:25;99241.66;;;23.77;32.88
67818;BME280;54614;47.576;7.524;2022-12-17T09:15:09;99245.75;;;23.73;32.75
67818;BME280;54614;47.576;7.524;2022-12-17T09:17:54;99242.94;;;23.82;32.82
67818;BME280;54614;47.576;7.524;2022-12-17T09:20:38;99244.59;;;23.83;32.38
67818;BME280;54614;47.576;7.524;2022-12-17T09:23:22;99248.69;;;23.78;32.60
67818;BME280;54614;47.576;7.524;2022-12-17T09:26:07;99248.63;;;23.72;32.46
67818;BME280;54614;47.576;7.524;2022-12-17T09:28:51;99252.50;;;23.69;32.67
67818;BME280;54614;47.576;7.524;2022-12-17T09:31:35;99248.91;;;23.62;33.00
67818;BME280;54614;47.576;7.524;2022-12-17T09:34:20;99251.34;;;23.57;32.88
67818;BME280;54614;47.576;7.524;2022-12-17T09:37:04;99254.09;;;23.64;32.58
67818;BME280;54614;47.576;7.524;2022-12-17T09:39:49;99251.34;;;23.57;32.96
67818;BME280;54614;47.576;7.524;2022-12-17T09:42:57;99257.81;;;23.63;32.80
67818;BME280;54614;47.576;7.524;2022-12-17T09:51:40;99257.81;;;23.48;33.21
67818;BME280;54614;47.576;7.524;2022-12-17T09:54:45;99252.44;;;23.48;32.86
67818;BME280;54614;47.576;7.524;2022-12-17T09:57:35;99264.19;;;23.47;33.15
67818;BME280;54614;47.576;7.524;2022-12-17T10:00:24;99265.22;;;23.46;33.04
67818;BME280;54614;47.576;7.524;2022-12-17T10:03:21;99253.28;;;23.48;32.98
67818;BME280;54614;47.576;7.524;2022-12-17T10:06:16;99250.13;;;23.45;33.06
67818;BME280;54614;47.576;7.524;2022-12-17T10:09:12;99259.22;;;23.44;32.83
67818;BME280;54614;47.576;7.524;2022-12-17T10:12:10;99256.59;;;23.51;32.46
67818;BME280;54614;47.576;7.524;2022-12-17T10:14:55;99256.25;;;23.39;32.83
67818;BME280;54614;47.576;7.524;2022-12-17T10:17:39;99255.50;;;23.45;32.64
67818;BME280;54614;47.576;7.524;2022-12-17T10:20:34;99255.13;;;23.48;32.25
67818;BME280;54614;47.576;7.524;2022-12-17T10:23:32;99249.13;;;23.46;32.66
67818;BME280;54614;47.576;7.524;2022-12-17T10:26:25;99249.88;;;23.40;32.73
67818;BME280;54614;47.576;7.524;2022-12-17T10:29:15;99258.47;;;23.35;32.40
67818;BME280;54614;47.576;7.524;2022-12-17T10:32:19;99255.69;;;23.43;32.63
67818;BME280;54614;47.576;7.524;2022-12-17T10:35:21;99252.00;;;23.44;32.33
67818;BME280;54614;47.576;7.524;2022-12-17T10:38:36;99252.06;;;23.51;32.41
67818;BME280;54614;47.576;7.524;2022-12-17T10:41:25;99251.78;;;23.46;32.04
67818;BME280;54614;47.576;7.524;2022-12-17T10:44:30;99261.91;;;23.44;31.90
67818;BME280;54614;47.576;7.524;2022-12-17T10:47:24;99255.63;;;23.37;31.93
67818;BME280;54614;47.576;7.524;2022-12-17T10:50:27;99249.94;;;23.46;32.07
67818;BME280;54614;47.576;7.524;2022-12-17T10:53:25;99250.97;;;23.45;32.12
67818;BME280;54614;47.576;7.524;2022-12-17T10:56:25;99251.59;;;23.47;32.10
67818;BME280;54614;47.576;7.524;2022-12-17T10:59:32;99245.41;;;23.47;32.13
67818;BME280;54614;47.576;7.524;2022-12-17T11:02:27;99237.09;;;23.42;32.71
67818;BME280;54614;47.576;7.524;2022-12-17T11:05:23;99237.09;;;23.42;32.78
67818;BME280;54614;47.576;7.524;2022-12-17T11:08:11;99236.91;;;23.43;32.63
67818;BME280;54614;47.576;7.524;2022-12-17T11:11:00;99242.91;;;23.45;32.97
67818;BME280;54614;47.576;7.524;2022-12-17T11:13:47;99236.06;;;23.58;32.43
67818;BME280;54614;47.576;7.524;2022-12-17T11:16:39;99237.09;;;23.57;32.63
67818;BME280;54614;47.576;7.524;2022-12-17T11:22:31;99240.38;;;23.73;32.29
67818;BME280;54614;47.576;7.524;2022-12-17T11:25:49;99241.19;;;23.74;32.53
67818;BME280;54614;47.576;7.524;2022-12-17T11:28:37;99239.09;;;23.69;32.17
67818;BME280;54614;47.576;7.524;2022-12-17T11:47:14;99241.53;;;23.86;33.17
67818;BME280;54614;47.576;7.524;2022-12-17T11:53:46;99240.88;;;23.84;32.83
67818;BME280;54614;47.576;7.524;2022-12-17T12:00:18;99238.59;;;23.81;32.91
67818;BME280;54614;47.576;7.524;2022-12-17T12:03:47;99241.47;;;23.79;33.40
67818;BME280;54614;47.576;7.524;2022-12-17T12:10:25;99237.09;;;23.78;33.19
67818;BME280;54614;47.576;7.524;2022-12-17T12:13:48;99242.47;;;23.78;33.60
67818;BME280;54614;47.576;7.524;2022-12-17T12:17:18;99238.59;;;23.81;33.78
67818;BME280;54614;47.576;7.524;2022-12-17T12:21:01;99236.72;;;23.81;33.77
67818;BME280;54614;47.576;7.524;2022-12-17T12:28:05;99238.97;;;23.77;34.58
67818;BME280;54614;47.576;7.524;2022-12-17T12:31:11;99251.56;;;23.77;34.11
67818;BME280;54614;47.576;7.524;2022-12-17T12:34:10;99250.72;;;23.76;33.94
67818;BME280;54614;47.576;7.524;2022-12-17T12:37:01;99255.19;;;23.69;34.01
67818;BME280;54614;47.576;7.524;2022-12-17T12:40:00;99249.72;;;23.77;33.37
67818;BME280;54614;47.576;7.524;2022-12-17T12:51:59;99243.75;;;23.82;32.99
67818;BME280;54614;47.576;7.524;2022-12-17T12:57:32;99245.50;;;23.90;33.10
67818;BME280;54614;47.576;7.524;2022-12-17T13:00:39;99240.19;;;23.96;32.92
67818;BME280;54614;47.576;7.524;2022-12-17T13:03:24;99236.03;;;23.94;32.59
67818;BME280;54614;47.576;7.524;2022-12-17T13:06:14;99246.44;;;23.61;33.89
67818;BME280;54614;47.576;7.524;2022-12-17T13:11:42;99247.84;;;23.78;32.91
67818;BME280;54614;47.576;7.524;2022-12-17T13:14:25;99254.25;;;23.77;32.43
67818;BME280;54614;47.576;7.524;2022-12-17T13:16:58;99248.31;;;24.03;31.61
67818;BME280;54614;47.576;7.524;2022-12-17T13:19:36;99249.72;;;24.20;32.74
67818;BME280;54614;47.576;7.524;2022-12-17T13:22:29;99247.47;;;24.24;32.45
67818;BME280;54614;47.576;7.524;2022-12-17T13:25:21;99254.16;;;24.28;31.29
67818;BME280;54614;47.576;7.524;2022-12-17T13:27:48;99248.88;;;24.20;32.49
67818;BME280;54614;47.576;7.524;2022-12-17T13:30:18;99252.59;;;24.40;31.31
67818;BME280;54614;47.576;7.524;2022-12-17T13:39:11;99249.59;;;24.50;31.00
67818;BME280;54614;47.576;7.524;2022-12-17T13:41:43;99245.63;;;24.46;30.84
67818;BME280;54614;47.576;7.524;2022-12-17T13:44:21;99249.38;;;24.51;31.00
67818;BME280;54614;47.576;7.524;2022-12-17T13:46:51;99256.88;;;24.56;31.26
67818;BME280;54614;47.576;7.524;2022-12-17T13:49:25;99259.41;;;24.64;30.79
67818;BME280;54614;47.576;7.524;2022-12-17T13:52:19;99265.97;;;24.55;30.96
67818;BME280;54614;47.576;7.524;2022-12-17T13:54:46;99259.81;;;24.61;30.99
67818;BME280;54614;47.576;7.524;2022-12-17T13:57:22;99257.75;;;24.63;31.02
67818;BME280;54614;47.576;7.524;2022-12-17T13:59:55;99270.78;;;24.38;31.24
67818;BME280;54614;47.576;7.524;2022-12-17T14:02:41;99272.91;;;24.42;31.46
67818;BME280;54614;47.576;7.524;2022-12-17T14:07:51;99281.66;;;24.51;31.09
67818;BME280;54614;47.576;7.524;2022-12-17T14:10:19;99275.91;;;24.54;31.12
67818;BME280;54614;47.576;7.524;2022-12-17T14:12:46;99274.88;;;24.55;31.19
67818;BME280;54614;47.576;7.524;2022-12-17T14:15:24;99287.69;;;24.53;30.85
67818;BME280;54614;47.576;7.524;2022-12-17T14:17:53;99280.25;;;24.55;30.74
67818;BME280;54614;47.576;7.524;2022-12-17T14:20:24;99284.84;;;24.61;30.72
67818;BME280;54614;47.576;7.524;2022-12-17T14:22:54;99283.19;;;24.60;30.46
67818;BME280;54614;47.576;7.524;2022-12-17T14:25:26;99285.75;;;24.47;30.69
67818;BME280;54614;47.576;7.524;2022-12-17T14:28:00;99289.09;;;24.49;30.93
67818;BME280;54614;47.576;7.524;2022-12-17T14:30:37;99287.75;;;24.38;31.35
67818;BME280;54614;47.576;7.524;2022-12-17T14:33:25;99284.09;;;24.46;30.99
67818;BME280;54614;47.576;7.524;2022-12-17T14:35:54;99286.78;;;24.46;30.98
67818;BME280;54614;47.576;7.524;2022-12-17T14:38:22;99291.53;;;24.44;31.07
67818;BME280;54614;47.576;7.524;2022-12-17T14:40:48;99293.63;;;24.49;30.78
67818;BME280;54614;47.576;7.524;2022-12-17T14:43:14;99289.16;;;24.56;30.67
67818;BME280;54614;47.576;7.524;2022-12-17T14:45:57;99294.84;;;24.46;30.53
67818;BME280;54614;47.576;7.524;2022-12-17T14:48:42;99297.34;;;24.48;30.53
67818;BME280;54614;47.576;7.524;2022-12-17T14:54:20;99299.03;;;24.49;30.16
67818;BME280;54614;47.576;7.524;2022-12-17T14:56:48;99305.16;;;24.21;30.86
67818;BME280;54614;47.576;7.524;2022-12-17T14:59:32;99304.88;;;24.16;30.74
67818;BME280;54614;47.576;7.524;2022-12-17T15:04:40;99309.28;;;24.38;30.59
67818;BME280;54614;47.576;7.524;2022-12-17T15:07:13;99306.38;;;24.40;30.59
67818;BME280;54614;47.576;7.524;2022-12-17T15:09:39;99319.38;;;24.36;30.70
67818;BME280;54614;47.576;7.524;2022-12-17T15:12:08;99321.38;;;24.28;30.48
67818;BME280;54614;47.576;7.524;2022-12-17T15:14:34;99316.03;;;24.13;30.54
67818;BME280;54614;47.576;7.524;2022-12-17T15:17:00;99316.91;;;24.20;29.43
67818;BME280;54614;47.576;7.524;2022-12-17T15:19:26;99315.00;;;24.14;29.54
67818;BME280;54614;47.576;7.524;2022-12-17T15:21:52;99313.06;;;24.08;30.26
67818;BME280;54614;47.576;7.524;2022-12-17T15:24:19;99313.06;;;24.08;30.16
67818;BME280;54614;47.576;7.524;2022-12-17T15:26:48;99311.47;;;23.92;30.98
67818;BME280;54614;47.576;7.524;2022-12-17T15:29:14;99302.91;;;24.03;29.98
67818;BME280;54614;47.576;7.524;2022-12-17T15:31:40;99301.69;;;24.06;30.09
67818;BME280;54614;47.576;7.524;2022-12-17T15:34:10;99305.13;;;24.00;30.44
67818;BME280;54614;47.576;7.524;2022-12-17T15:36:36;99293.75;;;23.98;30.57
67818;BME280;54614;47.576;7.524;2022-12-17T15:39:02;99299.50;;;24.16;30.61
67818;BME280;54614;47.576;7.524;2022-12-17T15:41:31;99299.97;;;24.20;30.38
67818;BME280;54614;47.576;7.524;2022-12-17T15:44:18;99302.91;;;24.25;30.25
67818;BME280;54614;47.576;7.524;2022-12-17T15:46:46;99308.94;;;24.27;30.41
67818;BME280;54614;47.576;7.524;2022-12-17T15:49:12;99305.25;;;24.28;30.36
67818;BME280;54614;47.576;7.524;2022-12-17T15:51:38;99306.72;;;24.30;30.36